sensor_id;sensor_type;location;lat;lon;timestamp;temperature;humidity
22192;DHT22;11261;52.456;10.850;2022-09-03T00:00:05;16.30;99.90
22192;DHT22;11261;52.456;10.850;2022-09-03T00:02:39;16.40;99.90
22192;DHT22;11261;52.456;10.850;2022-09-03T00:05:15;16.20;99.90
22192;DHT22;11261;52.456;10.850;2022-09-03T00:07:50;16.70;99.90
22192;DHT22;11261;52.456;10.850;2022-09-03T00:10:27;16.10;99.90
22192;DHT22;11261;52.456;10.850;2022-09-03T00:13:00;15.90;99.90
22192;DHT22;11261;52.456;10.850;2022-09-03T00:15:31;16.10;99.90
22192;DHT22;11261;52.456;10.850;2022-09-03T00:18:04;15.90;99.90
22192;DHT22;11261;52.456;10.850;2022-09-03T00:20:38;16.20;99.90
22192;DHT22;11261;52.456;10.850;2022-09-03T00:23:09;15.70;99.90
22192;DHT22;11261;52.456;10.850;2022-09-03T00:25:42;16.20;99.90
22192;DHT22;11261;52.456;10.850;2022-09-03T00:28:15;17.00;99.90
22192;DHT22;11261;52.456;10.850;2022-09-03T00:30:46;16.40;99.90
22192;DHT22;11261;52.456;10.850;2022-09-03T00:33:26;16.60;99.90
22192;DHT22;11261;52.456;10.850;2022-09-03T00:36:04;17.20;99.90
22192;DHT22;11261;52.456;10.850;2022-09-03T00:38:33;17.00;99.90
22192;DHT22;11261;52.456;10.850;2022-09-03T00:41:08;17.20;99.90
22192;DHT22;11261;52.456;10.850;2022-09-03T00:43:49;16.80;99.90
22192;DHT22;11261;52.456;10.850;2022-09-03T00:46:25;17.20;99.90
22192;DHT22;11261;52.456;10.850;2022-09-03T00:49:16;17.90;99.90
22192;DHT22;11261;52.456;10.850;2022-09-03T00:51:52;18.30;99.90
22192;DHT22;11261;52.456;10.850;2022-09-03T00:54:28;18.40;99.90
22192;DHT22;11261;52.456;10.850;2022-09-03T00:57:13;18.40;99.90
22192;DHT22;11261;52.456;10.850;2022-09-03T00:59:47;17.30;99.90
22192;DHT22;11261;52.456;10.850;2022-09-03T01:02:27;17.60;99.90
22192;DHT22;11261;52.456;10.850;2022-09-03T01:05:05;17.10;99.90
22192;DHT22;11261;52.456;10.850;2022-09-03T01:07:42;17.90;99.90
22192;DHT22;11261;52.456;10.850;2022-09-03T01:10:21;18.10;99.90
22192;DHT22;11261;52.456;10.850;2022-09-03T01:13:01;17.20;99.90
22192;DHT22;11261;52.456;10.850;2022-09-03T01:15:39;16.60;99.90
22192;DHT22;11261;52.456;10.850;2022-09-03T01:18:20;16.70;99.90
22192;DHT22;11261;52.456;10.850;2022-09-03T01:21:03;17.30;99.90
22192;DHT22;11261;52.456;10.850;2022-09-03T01:23:51;17.10;99.90
22192;DHT22;11261;52.456;10.850;2022-09-03T01:26:34;17.40;99.90
22192;DHT22;11261;52.456;10.850;2022-09-03T01:29:13;17.00;99.90
22192;DHT22;11261;52.456;10.850;2022-09-03T01:31:55;17.40;99.90
22192;DHT22;11261;52.456;10.850;2022-09-03T01:34:35;17.50;99.90
22192;DHT22;11261;52.456;10.850;2022-09-03T01:37:14;17.30;99.90
22192;DHT22;11261;52.456;10.850;2022-09-03T01:39:53;17.60;99.90
22192;DHT22;11261;52.456;10.850;2022-09-03T01:42:32;17.60;99.90
22192;DHT22;11261;52.456;10.850;2022-09-03T01:45:19;17.00;99.90
22192;DHT22;11261;52.456;10.850;2022-09-03T01:48:00;17.50;99.90
22192;DHT22;11261;52.456;10.850;2022-09-03T01:50:42;17.40;99.90
22192;DHT22;11261;52.456;10.850;2022-09-03T01:53:22;16.70;99.90
22192;DHT22;11261;52.456;10.850;2022-09-03T01:56:01;17.50;99.90
22192;DHT22;11261;52.456;10.850;2022-09-03T01:58:39;17.70;99.90
22192;DHT22;11261;52.456;10.850;2022-09-03T02:01:15;17.20;99.90
22192;DHT22;11261;52.456;10.850;2022-09-03T02:03:47;16.90;99.90
22192;DHT22;11261;52.456;10.850;2022-09-03T02:06:16;17.50;99.90
22192;DHT22;11261;52.456;10.850;2022-09-03T02:08:46;17.40;99.90
22192;DHT22;11261;52.456;10.850;2022-09-03T02:11:14;17.60;99.90
22192;DHT22;11261;52.456;10.850;2022-09-03T02:13:46;16.40;99.90
22192;DHT22;11261;52.456;10.850;2022-09-03T02:16:18;17.00;99.90
22192;DHT22;11261;52.456;10.850;2022-09-03T02:18:50;17.10;99.90
22192;DHT22;11261;52.456;10.850;2022-09-03T02:21:21;16.60;99.90
22192;DHT22;11261;52.456;10.850;2022-09-03T02:23:51;16.90;99.90
22192;DHT22;11261;52.456;10.850;2022-09-03T02:26:21;16.70;99.90
22192;DHT22;11261;52.456;10.850;2022-09-03T02:28:51;16.90;99.90
22192;DHT22;11261;52.456;10.850;2022-09-03T02:31:21;16.80;99.90
22192;DHT22;11261;52.456;10.850;2022-09-03T02:33:50;17.00;99.90
22192;DHT22;11261;52.456;10.850;2022-09-03T02:36:20;17.00;99.90
22192;DHT22;11261;52.456;10.850;2022-09-03T02:38:53;17.10;99.90
22192;DHT22;11261;52.456;10.850;2022-09-03T02:41:22;17.30;99.90
22192;DHT22;11261;52.456;10.850;2022-09-03T02:43:57;17.00;99.90
22192;DHT22;11261;52.456;10.850;2022-09-03T02:46:32;17.20;99.90
22192;DHT22;11261;52.456;10.850;2022-09-03T02:49:02;17.10;99.90
22192;DHT22;11261;52.456;10.850;2022-09-03T02:51:32;17.00;99.90
22192;DHT22;11261;52.456;10.850;2022-09-03T02:54:01;16.90;99.90
22192;DHT22;11261;52.456;10.850;2022-09-03T02:56:29;16.70;99.90
22192;DHT22;11261;52.456;10.850;2022-09-03T02:58:58;17.00;99.90
22192;DHT22;11261;52.456;10.850;2022-09-03T03:01:28;17.10;99.90
22192;DHT22;11261;52.456;10.850;2022-09-03T03:03:58;16.10;99.90
22192;DHT22;11261;52.456;10.850;2022-09-03T03:06:26;16.40;99.90
22192;DHT22;11261;52.456;10.850;2022-09-03T03:08:55;16.00;99.90
22192;DHT22;11261;52.456;10.850;2022-09-03T03:11:23;16.50;99.90
22192;DHT22;11261;52.456;10.850;2022-09-03T03:13:52;15.70;99.90
22192;DHT22;11261;52.456;10.850;2022-09-03T03:16:21;16.10;99.90
22192;DHT22;11261;52.456;10.850;2022-09-03T03:18:51;15.60;99.90
22192;DHT22;11261;52.456;10.850;2022-09-03T03:21:19;16.40;99.90
22192;DHT22;11261;52.456;10.850;2022-09-03T03:23:47;16.70;99.90
22192;DHT22;11261;52.456;10.850;2022-09-03T03:26:18;16.30;99.90
22192;DHT22;11261;52.456;10.850;2022-09-03T03:28:46;16.60;99.90
22192;DHT22;11261;52.456;10.850;2022-09-03T03:31:17;16.40;99.90
22192;DHT22;11261;52.456;10.850;2022-09-03T03:33:51;16.30;99.90
22192;DHT22;11261;52.456;10.850;2022-09-03T03:36:21;15.60;99.90
22192;DHT22;11261;52.456;10.850;2022-09-03T03:38:52;16.20;99.90
22192;DHT22;11261;52.456;10.850;2022-09-03T03:41:22;16.70;99.90
22192;DHT22;11261;52.456;10.850;2022-09-03T03:43:52;16.80;99.90
22192;DHT22;11261;52.456;10.850;2022-09-03T03:46:21;16.80;99.90
22192;DHT22;11261;52.456;10.850;2022-09-03T03:48:51;16.50;99.90
22192;DHT22;11261;52.456;10.850;2022-09-03T03:51:19;17.00;99.90
22192;DHT22;11261;52.456;10.850;2022-09-03T03:53:48;17.10;99.90
22192;DHT22;11261;52.456;10.850;2022-09-03T03:56:16;16.20;99.90
22192;DHT22;11261;52.456;10.850;2022-09-03T03:58:44;16.40;99.90
22192;DHT22;11261;52.456;10.850;2022-09-03T04:01:15;16.70;99.90
22192;DHT22;11261;52.456;10.850;2022-09-03T04:03:44;16.50;99.90
22192;DHT22;11261;52.456;10.850;2022-09-03T04:06:16;16.60;99.90
22192;DHT22;11261;52.456;10.850;2022-09-03T04:08:47;16.60;99.90
22192;DHT22;11261;52.456;10.850;2022-09-03T04:11:17;16.50;99.90
22192;DHT22;11261;52.456;10.850;2022-09-03T04:13:47;16.70;99.90
22192;DHT22;11261;52.456;10.850;2022-09-03T04:16:16;16.70;99.90
22192;DHT22;11261;52.456;10.850;2022-09-03T04:18:46;16.80;99.90
22192;DHT22;11261;52.456;10.850;2022-09-03T04:21:17;16.90;99.90
22192;DHT22;11261;52.456;10.850;2022-09-03T04:23:47;16.90;99.90
22192;DHT22;11261;52.456;10.850;2022-09-03T04:26:18;16.90;99.90
22192;DHT22;11261;52.456;10.850;2022-09-03T04:28:46;16.60;99.90
22192;DHT22;11261;52.456;10.850;2022-09-03T04:31:16;16.60;99.90
22192;DHT22;11261;52.456;10.850;2022-09-03T04:33:45;16.70;99.90
22192;DHT22;11261;52.456;10.850;2022-09-03T04:36:14;16.70;99.90
22192;DHT22;11261;52.456;10.850;2022-09-03T04:38:46;16.70;99.90
22192;DHT22;11261;52.456;10.850;2022-09-03T04:41:16;16.70;99.90
22192;DHT22;11261;52.456;10.850;2022-09-03T04:43:45;16.90;99.90
22192;DHT22;11261;52.456;10.850;2022-09-03T04:46:18;16.90;99.90
22192;DHT22;11261;52.456;10.850;2022-09-03T04:48:47;16.80;99.90
22192;DHT22;11261;52.456;10.850;2022-09-03T04:51:19;16.70;99.90
22192;DHT22;11261;52.456;10.850;2022-09-03T04:53:54;16.40;99.90
22192;DHT22;11261;52.456;10.850;2022-09-03T04:56:24;16.20;99.90
22192;DHT22;11261;52.456;10.850;2022-09-03T04:58:55;16.50;99.90
22192;DHT22;11261;52.456;10.850;2022-09-03T05:01:25;16.60;99.90
22192;DHT22;11261;52.456;10.850;2022-09-03T05:03:55;16.80;99.90
22192;DHT22;11261;52.456;10.850;2022-09-03T05:06:25;16.70;99.90
22192;DHT22;11261;52.456;10.850;2022-09-03T05:08:55;16.70;99.90
22192;DHT22;11261;52.456;10.850;2022-09-03T05:11:25;16.70;99.90
22192;DHT22;11261;52.456;10.850;2022-09-03T05:13:55;16.60;99.90
22192;DHT22;11261;52.456;10.850;2022-09-03T05:16:24;16.60;99.90
22192;DHT22;11261;52.456;10.850;2022-09-03T05:18:55;16.80;99.90
22192;DHT22;11261;52.456;10.850;2022-09-03T05:21:24;17.10;99.90
22192;DHT22;11261;52.456;10.850;2022-09-03T05:23:58;17.30;99.90
22192;DHT22;11261;52.456;10.850;2022-09-03T05:26:28;17.40;99.90
22192;DHT22;11261;52.456;10.850;2022-09-03T05:28:58;17.60;99.90
22192;DHT22;11261;52.456;10.850;2022-09-03T05:31:29;17.70;99.90
22192;DHT22;11261;52.456;10.850;2022-09-03T05:34:00;18.10;99.90
22192;DHT22;11261;52.456;10.850;2022-09-03T05:36:31;18.50;99.90
22192;DHT22;11261;52.456;10.850;2022-09-03T05:39:02;18.00;99.90
22192;DHT22;11261;52.456;10.850;2022-09-03T05:41:30;18.70;99.90
22192;DHT22;11261;52.456;10.850;2022-09-03T05:44:00;18.60;99.90
22192;DHT22;11261;52.456;10.850;2022-09-03T05:46:30;18.40;99.90
22192;DHT22;11261;52.456;10.850;2022-09-03T05:48:59;18.20;99.90
22192;DHT22;11261;52.456;10.850;2022-09-03T05:51:29;18.80;99.90
22192;DHT22;11261;52.456;10.850;2022-09-03T05:53:58;19.20;99.90
22192;DHT22;11261;52.456;10.850;2022-09-03T05:56:29;19.50;99.90
22192;DHT22;11261;52.456;10.850;2022-09-03T05:58:58;18.50;99.90
22192;DHT22;11261;52.456;10.850;2022-09-03T06:01:30;19.10;99.90
22192;DHT22;11261;52.456;10.850;2022-09-03T06:03:59;18.80;99.90
22192;DHT22;11261;52.456;10.850;2022-09-03T06:06:29;19.40;99.90
22192;DHT22;11261;52.456;10.850;2022-09-03T06:09:00;18.40;99.90
22192;DHT22;11261;52.456;10.850;2022-09-03T06:11:32;17.50;99.90
22192;DHT22;11261;52.456;10.850;2022-09-03T06:14:02;17.80;99.90
22192;DHT22;11261;52.456;10.850;2022-09-03T06:16:32;18.50;99.90
22192;DHT22;11261;52.456;10.850;2022-09-03T06:19:01;18.20;99.90
22192;DHT22;11261;52.456;10.850;2022-09-03T06:21:29;18.10;99.90
22192;DHT22;11261;52.456;10.850;2022-09-03T06:23:57;19.80;99.90
22192;DHT22;11261;52.456;10.850;2022-09-03T06:26:26;18.80;99.90
22192;DHT22;11261;52.456;10.850;2022-09-03T06:28:57;19.40;99.90
22192;DHT22;11261;52.456;10.850;2022-09-03T06:31:25;20.20;99.90
22192;DHT22;11261;52.456;10.850;2022-09-03T06:33:54;20.90;99.90
22192;DHT22;11261;52.456;10.850;2022-09-03T06:36:29;18.30;99.90
22192;DHT22;11261;52.456;10.850;2022-09-03T06:38:57;19.00;99.90
22192;DHT22;11261;52.456;10.850;2022-09-03T06:41:27;20.10;99.90
22192;DHT22;11261;52.456;10.850;2022-09-03T06:44:01;20.50;99.90
22192;DHT22;11261;52.456;10.850;2022-09-03T06:46:31;20.00;99.90
22192;DHT22;11261;52.456;10.850;2022-09-03T06:48:59;20.00;99.90
22192;DHT22;11261;52.456;10.850;2022-09-03T06:51:29;16.80;99.90
22192;DHT22;11261;52.456;10.850;2022-09-03T06:54:00;16.80;99.90
22192;DHT22;11261;52.456;10.850;2022-09-03T06:56:29;16.90;99.90
22192;DHT22;11261;52.456;10.850;2022-09-03T06:59:08;16.50;99.90
22192;DHT22;11261;52.456;10.850;2022-09-03T07:01:36;16.60;99.90
22192;DHT22;11261;52.456;10.850;2022-09-03T07:04:11;16.10;99.90
22192;DHT22;11261;52.456;10.850;2022-09-03T07:06:40;16.90;99.90
22192;DHT22;11261;52.456;10.850;2022-09-03T07:09:10;16.50;99.90
22192;DHT22;11261;52.456;10.850;2022-09-03T07:11:38;16.30;99.90
22192;DHT22;11261;52.456;10.850;2022-09-03T07:14:16;17.30;99.90
22192;DHT22;11261;52.456;10.850;2022-09-03T07:16:45;18.10;99.90
22192;DHT22;11261;52.456;10.850;2022-09-03T07:19:14;18.20;99.90
22192;DHT22;11261;52.456;10.850;2022-09-03T07:21:42;16.90;99.90
22192;DHT22;11261;52.456;10.850;2022-09-03T07:24:17;16.80;99.90
22192;DHT22;11261;52.456;10.850;2022-09-03T07:26:45;17.40;99.90
22192;DHT22;11261;52.456;10.850;2022-09-03T07:29:16;17.30;99.90
22192;DHT22;11261;52.456;10.850;2022-09-03T07:31:47;17.20;99.90
22192;DHT22;11261;52.456;10.850;2022-09-03T07:34:18;18.00;99.90
22192;DHT22;11261;52.456;10.850;2022-09-03T07:36:47;18.10;99.90
22192;DHT22;11261;52.456;10.850;2022-09-03T07:39:17;17.90;99.90
22192;DHT22;11261;52.456;10.850;2022-09-03T07:41:46;17.50;99.90
22192;DHT22;11261;52.456;10.850;2022-09-03T07:44:18;17.90;99.90
22192;DHT22;11261;52.456;10.850;2022-09-03T07:46:47;18.10;99.90
22192;DHT22;11261;52.456;10.850;2022-09-03T07:49:18;18.30;99.90
22192;DHT22;11261;52.456;10.850;2022-09-03T07:51:47;19.20;99.90
22192;DHT22;11261;52.456;10.850;2022-09-03T07:54:18;19.10;99.90
22192;DHT22;11261;52.456;10.850;2022-09-03T07:56:47;18.70;99.90
22192;DHT22;11261;52.456;10.850;2022-09-03T07:59:16;18.60;99.90
22192;DHT22;11261;52.456;10.850;2022-09-03T08:01:45;18.70;99.90
22192;DHT22;11261;52.456;10.850;2022-09-03T08:04:13;19.10;99.90
22192;DHT22;11261;52.456;10.850;2022-09-03T08:06:41;20.10;99.90
22192;DHT22;11261;52.456;10.850;2022-09-03T08:09:11;19.30;99.90
22192;DHT22;11261;52.456;10.850;2022-09-03T08:11:41;19.40;99.90
22192;DHT22;11261;52.456;10.850;2022-09-03T08:14:12;20.10;99.90
22192;DHT22;11261;52.456;10.850;2022-09-03T08:16:43;20.50;99.90
22192;DHT22;11261;52.456;10.850;2022-09-03T08:19:13;20.10;99.90
22192;DHT22;11261;52.456;10.850;2022-09-03T08:21:41;21.20;99.90
22192;DHT22;11261;52.456;10.850;2022-09-03T08:24:10;20.80;99.90
22192;DHT22;11261;52.456;10.850;2022-09-03T08:26:40;21.00;99.90
22192;DHT22;11261;52.456;10.850;2022-09-03T08:29:16;21.90;99.90
22192;DHT22;11261;52.456;10.850;2022-09-03T08:31:46;20.00;99.90
22192;DHT22;11261;52.456;10.850;2022-09-03T08:34:14;19.60;99.90
22192;DHT22;11261;52.456;10.850;2022-09-03T08:36:44;20.30;99.90
22192;DHT22;11261;52.456;10.850;2022-09-03T08:39:13;20.60;99.90
22192;DHT22;11261;52.456;10.850;2022-09-03T08:42:00;20.80;99.90
22192;DHT22;11261;52.456;10.850;2022-09-03T08:44:39;20.50;99.90
22192;DHT22;11261;52.456;10.850;2022-09-03T08:47:12;21.00;99.90
22192;DHT22;11261;52.456;10.850;2022-09-03T08:49:45;20.90;99.90
22192;DHT22;11261;52.456;10.850;2022-09-03T08:52:23;20.60;99.90
22192;DHT22;11261;52.456;10.850;2022-09-03T08:54:54;20.50;99.90
22192;DHT22;11261;52.456;10.850;2022-09-03T08:57:25;20.30;99.90
22192;DHT22;11261;52.456;10.850;2022-09-03T08:59:54;20.80;99.90
22192;DHT22;11261;52.456;10.850;2022-09-03T09:02:32;20.60;99.90
22192;DHT22;11261;52.456;10.850;2022-09-03T09:05:06;20.90;99.90
22192;DHT22;11261;52.456;10.850;2022-09-03T09:07:46;22.20;99.40
22192;DHT22;11261;52.456;10.850;2022-09-03T09:10:25;21.60;98.70
22192;DHT22;11261;52.456;10.850;2022-09-03T09:13:07;21.00;99.20
22192;DHT22;11261;52.456;10.850;2022-09-03T09:15:49;21.80;98.80
22192;DHT22;11261;52.456;10.850;2022-09-03T09:18:29;22.10;98.40
22192;DHT22;11261;52.456;10.850;2022-09-03T09:21:08;21.70;99.00
22192;DHT22;11261;52.456;10.850;2022-09-03T09:23:47;21.70;98.10
22192;DHT22;11261;52.456;10.850;2022-09-03T09:26:17;22.40;98.70
22192;DHT22;11261;52.456;10.850;2022-09-03T09:28:51;23.50;96.40
22192;DHT22;11261;52.456;10.850;2022-09-03T09:31:20;22.30;96.90
22192;DHT22;11261;52.456;10.850;2022-09-03T09:33:51;22.80;96.00
22192;DHT22;11261;52.456;10.850;2022-09-03T09:36:20;21.60;96.20
22192;DHT22;11261;52.456;10.850;2022-09-03T09:38:49;21.50;96.80
22192;DHT22;11261;52.456;10.850;2022-09-03T09:41:19;22.30;96.30
22192;DHT22;11261;52.456;10.850;2022-09-03T09:43:59;22.20;96.30
22192;DHT22;11261;52.456;10.850;2022-09-03T09:46:33;22.50;95.90
22192;DHT22;11261;52.456;10.850;2022-09-03T09:49:17;23.60;94.10
22192;DHT22;11261;52.456;10.850;2022-09-03T09:52:00;22.60;95.00
22192;DHT22;11261;52.456;10.850;2022-09-03T09:54:30;23.70;96.20
22192;DHT22;11261;52.456;10.850;2022-09-03T09:56:59;23.40;93.90
22192;DHT22;11261;52.456;10.850;2022-09-03T09:59:27;23.60;94.40
22192;DHT22;11261;52.456;10.850;2022-09-03T10:02:07;23.00;93.80
22192;DHT22;11261;52.456;10.850;2022-09-03T10:04:40;22.60;93.90
22192;DHT22;11261;52.456;10.850;2022-09-03T10:07:26;23.30;93.80
22192;DHT22;11261;52.456;10.850;2022-09-03T10:10:05;22.20;94.40
22192;DHT22;11261;52.456;10.850;2022-09-03T10:12:39;21.90;92.40
22192;DHT22;11261;52.456;10.850;2022-09-03T10:15:20;22.20;93.70
22192;DHT22;11261;52.456;10.850;2022-09-03T10:18:01;22.50;92.70
22192;DHT22;11261;52.456;10.850;2022-09-03T10:20:35;21.90;91.50
22192;DHT22;11261;52.456;10.850;2022-09-03T10:23:12;22.20;91.80
22192;DHT22;11261;52.456;10.850;2022-09-03T10:25:49;22.70;91.70
22192;DHT22;11261;52.456;10.850;2022-09-03T10:28:20;22.30;91.50
22192;DHT22;11261;52.456;10.850;2022-09-03T10:31:08;22.20;91.70
22192;DHT22;11261;52.456;10.850;2022-09-03T10:33:46;21.90;91.40
22192;DHT22;11261;52.456;10.850;2022-09-03T10:36:19;22.60;91.00
22192;DHT22;11261;52.456;10.850;2022-09-03T10:38:53;22.30;90.90
22192;DHT22;11261;52.456;10.850;2022-09-03T10:41:37;22.20;90.60
22192;DHT22;11261;52.456;10.850;2022-09-03T10:44:27;22.10;90.90
22192;DHT22;11261;52.456;10.850;2022-09-03T10:47:13;22.10;91.00
22192;DHT22;11261;52.456;10.850;2022-09-03T10:49:54;22.20;90.90
22192;DHT22;11261;52.456;10.850;2022-09-03T10:52:30;21.70;90.50
22192;DHT22;11261;52.456;10.850;2022-09-03T10:55:12;21.90;90.80
22192;DHT22;11261;52.456;10.850;2022-09-03T10:57:47;21.90;90.50
22192;DHT22;11261;52.456;10.850;2022-09-03T11:00:18;21.60;90.80
22192;DHT22;11261;52.456;10.850;2022-09-03T11:05:55;22.10;90.60
22192;DHT22;11261;52.456;10.850;2022-09-03T11:08:31;22.80;90.60
22192;DHT22;11261;52.456;10.850;2022-09-03T11:11:08;22.70;90.50
22192;DHT22;11261;52.456;10.850;2022-09-03T11:13:41;22.40;88.90
22192;DHT22;11261;52.456;10.850;2022-09-03T11:16:16;22.70;90.00
22192;DHT22;11261;52.456;10.850;2022-09-03T11:18:48;23.10;88.40
22192;DHT22;11261;52.456;10.850;2022-09-03T11:21:21;23.30;88.40
22192;DHT22;11261;52.456;10.850;2022-09-03T11:24:00;22.80;87.10
22192;DHT22;11261;52.456;10.850;2022-09-03T11:26:31;22.60;87.60
22192;DHT22;11261;52.456;10.850;2022-09-03T11:29:05;22.40;88.00
22192;DHT22;11261;52.456;10.850;2022-09-03T11:31:45;22.50;88.00
22192;DHT22;11261;52.456;10.850;2022-09-03T11:34:28;22.40;87.20
22192;DHT22;11261;52.456;10.850;2022-09-03T11:37:15;22.90;87.30
22192;DHT22;11261;52.456;10.850;2022-09-03T11:39:53;22.80;88.30
22192;DHT22;11261;52.456;10.850;2022-09-03T11:42:34;22.80;86.50
22192;DHT22;11261;52.456;10.850;2022-09-03T11:45:21;22.70;88.20
22192;DHT22;11261;52.456;10.850;2022-09-03T11:47:50;22.90;85.80
22192;DHT22;11261;52.456;10.850;2022-09-03T11:50:22;23.40;84.40
22192;DHT22;11261;52.456;10.850;2022-09-03T11:52:53;23.40;86.50
22192;DHT22;11261;52.456;10.850;2022-09-03T11:55:28;23.10;84.60
22192;DHT22;11261;52.456;10.850;2022-09-03T11:58:11;22.60;84.70
22192;DHT22;11261;52.456;10.850;2022-09-03T12:00:40;23.10;85.70
22192;DHT22;11261;52.456;10.850;2022-09-03T12:03:13;22.90;85.30
22192;DHT22;11261;52.456;10.850;2022-09-03T12:05:50;22.60;85.80
22192;DHT22;11261;52.456;10.850;2022-09-03T12:08:43;22.70;85.70
22192;DHT22;11261;52.456;10.850;2022-09-03T12:11:33;22.10;85.40
22192;DHT22;11261;52.456;10.850;2022-09-03T12:14:07;22.60;84.60
22192;DHT22;11261;52.456;10.850;2022-09-03T12:17:01;22.60;83.10
22192;DHT22;11261;52.456;10.850;2022-09-03T12:19:36;23.20;83.70
22192;DHT22;11261;52.456;10.850;2022-09-03T12:22:05;23.50;83.70
22192;DHT22;11261;52.456;10.850;2022-09-03T12:24:33;23.30;83.20
22192;DHT22;11261;52.456;10.850;2022-09-03T12:27:08;22.90;82.50
22192;DHT22;11261;52.456;10.850;2022-09-03T12:29:37;23.70;85.10
22192;DHT22;11261;52.456;10.850;2022-09-03T12:32:10;23.20;81.40
22192;DHT22;11261;52.456;10.850;2022-09-03T12:34:38;23.20;83.70
22192;DHT22;11261;52.456;10.850;2022-09-03T12:37:18;22.90;82.70
22192;DHT22;11261;52.456;10.850;2022-09-03T12:40:17;23.30;82.90
22192;DHT22;11261;52.456;10.850;2022-09-03T12:42:49;22.80;81.80
22192;DHT22;11261;52.456;10.850;2022-09-03T12:45:19;22.60;83.50
22192;DHT22;11261;52.456;10.850;2022-09-03T12:47:47;22.80;82.20
22192;DHT22;11261;52.456;10.850;2022-09-03T12:50:18;23.40;83.10
22192;DHT22;11261;52.456;10.850;2022-09-03T12:52:48;23.00;81.00
22192;DHT22;11261;52.456;10.850;2022-09-03T12:55:27;22.70;81.50
22192;DHT22;11261;52.456;10.850;2022-09-03T12:58:02;22.90;81.30
22192;DHT22;11261;52.456;10.850;2022-09-03T13:00:38;23.00;81.30
22192;DHT22;11261;52.456;10.850;2022-09-03T13:03:09;22.60;82.70
22192;DHT22;11261;52.456;10.850;2022-09-03T13:05:42;22.40;82.50
22192;DHT22;11261;52.456;10.850;2022-09-03T13:08:16;22.70;82.90
22192;DHT22;11261;52.456;10.850;2022-09-03T13:10:50;23.10;83.70
22192;DHT22;11261;52.456;10.850;2022-09-03T13:13:23;22.90;81.50
22192;DHT22;11261;52.456;10.850;2022-09-03T13:16:33;23.10;82.00
22192;DHT22;11261;52.456;10.850;2022-09-03T13:19:09;23.10;81.10
22192;DHT22;11261;52.456;10.850;2022-09-03T13:21:45;23.20;81.40
22192;DHT22;11261;52.456;10.850;2022-09-03T13:24:37;23.00;79.80
22192;DHT22;11261;52.456;10.850;2022-09-03T13:27:14;23.20;79.90
22192;DHT22;11261;52.456;10.850;2022-09-03T13:30:02;23.40;81.70
22192;DHT22;11261;52.456;10.850;2022-09-03T13:32:38;23.50;81.60
22192;DHT22;11261;52.456;10.850;2022-09-03T13:35:24;23.50;79.60
22192;DHT22;11261;52.456;10.850;2022-09-03T13:37:57;23.70;81.70
22192;DHT22;11261;52.456;10.850;2022-09-03T13:40:35;23.20;82.20
22192;DHT22;11261;52.456;10.850;2022-09-03T13:43:19;23.00;81.80
22192;DHT22;11261;52.456;10.850;2022-09-03T13:45:55;23.30;82.50
22192;DHT22;11261;52.456;10.850;2022-09-03T13:48:29;23.00;81.90
22192;DHT22;11261;52.456;10.850;2022-09-03T13:51:18;23.10;83.00
22192;DHT22;11261;52.456;10.850;2022-09-03T13:53:58;22.90;81.00
22192;DHT22;11261;52.456;10.850;2022-09-03T13:56:36;23.00;81.00
22192;DHT22;11261;52.456;10.850;2022-09-03T13:59:18;22.60;82.50
22192;DHT22;11261;52.456;10.850;2022-09-03T14:02:04;22.50;82.30
22192;DHT22;11261;52.456;10.850;2022-09-03T14:04:43;22.50;82.00
22192;DHT22;11261;52.456;10.850;2022-09-03T14:07:17;22.90;81.80
22192;DHT22;11261;52.456;10.850;2022-09-03T14:09:57;22.80;81.40
22192;DHT22;11261;52.456;10.850;2022-09-03T14:12:38;23.00;81.40
22192;DHT22;11261;52.456;10.850;2022-09-03T14:15:16;22.90;82.40
22192;DHT22;11261;52.456;10.850;2022-09-03T14:17:51;23.00;81.60
22192;DHT22;11261;52.456;10.850;2022-09-03T14:20:27;22.70;80.50
22192;DHT22;11261;52.456;10.850;2022-09-03T14:23:01;22.70;81.60
22192;DHT22;11261;52.456;10.850;2022-09-03T14:25:30;22.80;81.40
22192;DHT22;11261;52.456;10.850;2022-09-03T14:28:13;22.80;81.40
22192;DHT22;11261;52.456;10.850;2022-09-03T14:30:46;22.90;81.50
22192;DHT22;11261;52.456;10.850;2022-09-03T14:33:29;22.90;80.30
22192;DHT22;11261;52.456;10.850;2022-09-03T14:36:09;22.80;80.00
22192;DHT22;11261;52.456;10.850;2022-09-03T14:38:53;22.90;80.30
22192;DHT22;11261;52.456;10.850;2022-09-03T14:44:53;22.60;80.40
22192;DHT22;11261;52.456;10.850;2022-09-03T14:47:38;22.90;81.80
22192;DHT22;11261;52.456;10.850;2022-09-03T14:50:18;22.80;80.90
22192;DHT22;11261;52.456;10.850;2022-09-03T14:56:12;22.70;80.60
22192;DHT22;11261;52.456;10.850;2022-09-03T14:59:00;22.80;81.40
22192;DHT22;11261;52.456;10.850;2022-09-03T15:01:32;22.60;80.20
22192;DHT22;11261;52.456;10.850;2022-09-03T15:04:37;22.80;80.60
22192;DHT22;11261;52.456;10.850;2022-09-03T15:07:32;23.00;82.10
22192;DHT22;11261;52.456;10.850;2022-09-03T15:10:11;23.00;80.60
22192;DHT22;11261;52.456;10.850;2022-09-03T15:12:45;22.90;79.80
22192;DHT22;11261;52.456;10.850;2022-09-03T15:15:18;22.80;80.70
22192;DHT22;11261;52.456;10.850;2022-09-03T15:17:57;22.90;80.30
22192;DHT22;11261;52.456;10.850;2022-09-03T15:20:32;23.00;80.10
22192;DHT22;11261;52.456;10.850;2022-09-03T15:23:22;22.90;80.20
22192;DHT22;11261;52.456;10.850;2022-09-03T15:29:19;22.90;80.30
22192;DHT22;11261;52.456;10.850;2022-09-03T15:31:56;23.00;80.50
22192;DHT22;11261;52.456;10.850;2022-09-03T15:34:49;22.90;81.50
22192;DHT22;11261;52.456;10.850;2022-09-03T15:37:24;22.90;81.40
22192;DHT22;11261;52.456;10.850;2022-09-03T15:40:01;22.90;80.80
22192;DHT22;11261;52.456;10.850;2022-09-03T15:42:31;22.80;80.70
22192;DHT22;11261;52.456;10.850;2022-09-03T15:45:06;22.90;80.90
22192;DHT22;11261;52.456;10.850;2022-09-03T15:47:39;22.90;81.60
22192;DHT22;11261;52.456;10.850;2022-09-03T15:50:28;22.90;80.70
22192;DHT22;11261;52.456;10.850;2022-09-03T15:53:01;23.00;80.70
22192;DHT22;11261;52.456;10.850;2022-09-03T15:55:34;22.90;81.60
22192;DHT22;11261;52.456;10.850;2022-09-03T15:58:09;22.60;81.10
22192;DHT22;11261;52.456;10.850;2022-09-03T16:00:52;22.50;81.80
22192;DHT22;11261;52.456;10.850;2022-09-03T16:03:33;22.40;82.10
22192;DHT22;11261;52.456;10.850;2022-09-03T16:06:17;22.50;82.70
22192;DHT22;11261;52.456;10.850;2022-09-03T16:08:51;22.50;82.10
22192;DHT22;11261;52.456;10.850;2022-09-03T16:11:33;22.40;83.00